sensor_id;sensor_type;location;lat;lon;timestamp;P1;durP1;ratioP1;P2;durP2;ratioP2
47760;SDS011;33524;55.434;38.520;2023-06-22T00:00:40;5.40;;;4.53;;
47760;SDS011;33524;55.434;38.520;2023-06-22T00:03:10;4.70;;;4.15;;
47760;SDS011;33524;55.434;38.520;2023-06-22T00:05:38;5.68;;;4.18;;
47760;SDS011;33524;55.434;38.520;2023-06-22T00:08:06;5.45;;;4.95;;
47760;SDS011;33524;55.434;38.520;2023-06-22T00:10:38;6.68;;;5.05;;
47760;SDS011;33524;55.434;38.520;2023-06-22T00:13:06;5.93;;;4.95;;
47760;SDS011;33524;55.434;38.520;2023-06-22T00:15:37;6.43;;;5.70;;
47760;SDS011;33524;55.434;38.520;2023-06-22T00:18:06;8.32;;;7.00;;
47760;SDS011;33524;55.434;38.520;2023-06-22T00:20:36;7.03;;;6.32;;
47760;SDS011;33524;55.434;38.520;2023-06-22T00:23:05;8.30;;;6.65;;
47760;SDS011;33524;55.434;38.520;2023-06-22T00:25:38;8.88;;;7.53;;
47760;SDS011;33524;55.434;38.520;2023-06-22T00:28:09;7.35;;;6.45;;
47760;SDS011;33524;55.434;38.520;2023-06-22T00:30:37;6.03;;;5.15;;
47760;SDS011;33524;55.434;38.520;2023-06-22T00:33:05;6.28;;;5.03;;
47760;SDS011;33524;55.434;38.520;2023-06-22T00:35:35;9.70;;;6.10;;
47760;SDS011;33524;55.434;38.520;2023-06-22T00:38:03;6.78;;;5.60;;
47760;SDS011;33524;55.434;38.520;2023-06-22T00:40:35;7.32;;;5.45;;
47760;SDS011;33524;55.434;38.520;2023-06-22T00:43:04;6.50;;;5.53;;
47760;SDS011;33524;55.434;38.520;2023-06-22T00:45:32;6.68;;;5.97;;
47760;SDS011;33524;55.434;38.520;2023-06-22T00:48:00;7.68;;;6.55;;
47760;SDS011;33524;55.434;38.520;2023-06-22T00:50:30;7.72;;;5.62;;
47760;SDS011;33524;55.434;38.520;2023-06-22T00:53:05;7.97;;;5.57;;
47760;SDS011;33524;55.434;38.520;2023-06-22T00:55:41;6.90;;;4.62;;
47760;SDS011;33524;55.434;38.520;2023-06-22T00:58:14;9.40;;;6.43;;
47760;SDS011;33524;55.434;38.520;2023-06-22T01:00:43;5.10;;;3.83;;
47760;SDS011;33524;55.434;38.520;2023-06-22T01:03:11;7.03;;;5.53;;
47760;SDS011;33524;55.434;38.520;2023-06-22T01:05:39;7.22;;;5.85;;
47760;SDS011;33524;55.434;38.520;2023-06-22T01:11:01;7.18;;;5.82;;
47760;SDS011;33524;55.434;38.520;2023-06-22T01:16:20;6.57;;;5.45;;
47760;SDS011;33524;55.434;38.520;2023-06-22T01:18:57;7.65;;;6.10;;
47760;SDS011;33524;55.434;38.520;2023-06-22T01:21:32;7.45;;;5.90;;
47760;SDS011;33524;55.434;38.520;2023-06-22T01:29:18;4.93;;;4.30;;
47760;SDS011;33524;55.434;38.520;2023-06-22T01:31:48;5.90;;;5.25;;
47760;SDS011;33524;55.434;38.520;2023-06-22T01:34:18;7.28;;;5.97;;
47760;SDS011;33524;55.434;38.520;2023-06-22T01:36:47;6.55;;;5.85;;
47760;SDS011;33524;55.434;38.520;2023-06-22T01:39:16;7.25;;;5.15;;
47760;SDS011;33524;55.434;38.520;2023-06-22T01:41:47;7.00;;;4.43;;
47760;SDS011;33524;55.434;38.520;2023-06-22T01:44:19;6.22;;;5.03;;
47760;SDS011;33524;55.434;38.520;2023-06-22T01:46:48;6.55;;;5.80;;
47760;SDS011;33524;55.434;38.520;2023-06-22T01:49:20;7.72;;;6.15;;
47760;SDS011;33524;55.434;38.520;2023-06-22T01:51:49;8.13;;;5.30;;
47760;SDS011;33524;55.434;38.520;2023-06-22T01:54:17;11.68;;;6.70;;
47760;SDS011;33524;55.434;38.520;2023-06-22T01:56:46;7.85;;;6.07;;
47760;SDS011;33524;55.434;38.520;2023-06-22T01:59:25;5.80;;;4.47;;
47760;SDS011;33524;55.434;38.520;2023-06-22T02:02:10;6.62;;;4.65;;
47760;SDS011;33524;55.434;38.520;2023-06-22T02:04:46;8.13;;;4.47;;
47760;SDS011;33524;55.434;38.520;2023-06-22T02:07:23;8.15;;;6.53;;
47760;SDS011;33524;55.434;38.520;2023-06-22T02:09:56;9.50;;;7.57;;
47760;SDS011;33524;55.434;38.520;2023-06-22T02:12:34;12.45;;;10.00;;
47760;SDS011;33524;55.434;38.520;2023-06-22T02:15:04;7.55;;;6.37;;
47760;SDS011;33524;55.434;38.520;2023-06-22T02:17:33;4.37;;;3.95;;
47760;SDS011;33524;55.434;38.520;2023-06-22T02:20:02;8.40;;;6.25;;
47760;SDS011;33524;55.434;38.520;2023-06-22T02:22:35;11.40;;;9.43;;
47760;SDS011;33524;55.434;38.520;2023-06-22T02:25:04;14.25;;;11.93;;
47760;SDS011;33524;55.434;38.520;2023-06-22T02:27:32;7.03;;;4.28;;
47760;SDS011;33524;55.434;38.520;2023-06-22T02:30:00;9.48;;;7.00;;
47760;SDS011;33524;55.434;38.520;2023-06-22T02:32:29;9.95;;;7.07;;
47760;SDS011;33524;55.434;38.520;2023-06-22T02:34:57;9.13;;;6.45;;
47760;SDS011;33524;55.434;38.520;2023-06-22T02:37:25;8.15;;;6.47;;
47760;SDS011;33524;55.434;38.520;2023-06-22T02:39:58;9.13;;;4.65;;
47760;SDS011;33524;55.434;38.520;2023-06-22T02:42:26;10.52;;;5.97;;
47760;SDS011;33524;55.434;38.520;2023-06-22T02:44:54;9.73;;;6.40;;
47760;SDS011;33524;55.434;38.520;2023-06-22T02:47:22;13.70;;;5.82;;
47760;SDS011;33524;55.434;38.520;2023-06-22T02:49:50;13.10;;;5.82;;
47760;SDS011;33524;55.434;38.520;2023-06-22T02:52:18;7.97;;;6.50;;
47760;SDS011;33524;55.434;38.520;2023-06-22T02:54:50;16.35;;;6.87;;
47760;SDS011;33524;55.434;38.520;2023-06-22T02:57:19;18.10;;;9.02;;
47760;SDS011;33524;55.434;38.520;2023-06-22T02:59:47;14.30;;;8.32;;
47760;SDS011;33524;55.434;38.520;2023-06-22T03:02:15;12.45;;;9.30;;
47760;SDS011;33524;55.434;38.520;2023-06-22T03:04:43;10.95;;;8.02;;
47760;SDS011;33524;55.434;38.520;2023-06-22T03:07:12;11.98;;;8.35;;
47760;SDS011;33524;55.434;38.520;2023-06-22T03:09:40;8.95;;;5.30;;
47760;SDS011;33524;55.434;38.520;2023-06-22T03:12:09;11.63;;;6.53;;
47760;SDS011;33524;55.434;38.520;2023-06-22T03:14:39;9.90;;;7.32;;
47760;SDS011;33524;55.434;38.520;2023-06-22T03:17:07;12.20;;;7.97;;
47760;SDS011;33524;55.434;38.520;2023-06-22T03:19:36;10.23;;;6.90;;
47760;SDS011;33524;55.434;38.520;2023-06-22T03:22:04;11.80;;;6.30;;
47760;SDS011;33524;55.434;38.520;2023-06-22T03:24:32;6.18;;;4.50;;
47760;SDS011;33524;55.434;38.520;2023-06-22T03:27:01;6.35;;;4.20;;
47760;SDS011;33524;55.434;38.520;2023-06-22T03:29:33;9.75;;;6.87;;
47760;SDS011;33524;55.434;38.520;2023-06-22T03:32:01;11.68;;;7.25;;
47760;SDS011;33524;55.434;38.520;2023-06-22T03:34:33;10.43;;;6.95;;
47760;SDS011;33524;55.434;38.520;2023-06-22T03:37:03;13.55;;;6.70;;
47760;SDS011;33524;55.434;38.520;2023-06-22T03:39:32;11.57;;;6.65;;
47760;SDS011;33524;55.434;38.520;2023-06-22T03:42:00;11.57;;;8.20;;
47760;SDS011;33524;55.434;38.520;2023-06-22T03:44:28;13.45;;;7.22;;
47760;SDS011;33524;55.434;38.520;2023-06-22T03:47:00;11.02;;;5.65;;
47760;SDS011;33524;55.434;38.520;2023-06-22T03:49:29;12.93;;;7.83;;
47760;SDS011;33524;55.434;38.520;2023-06-22T03:51:58;11.70;;;6.87;;
47760;SDS011;33524;55.434;38.520;2023-06-22T03:54:27;10.20;;;6.45;;
47760;SDS011;33524;55.434;38.520;2023-06-22T03:56:57;12.10;;;8.10;;
47760;SDS011;33524;55.434;38.520;2023-06-22T03:59:26;11.05;;;7.97;;
47760;SDS011;33524;55.434;38.520;2023-06-22T04:01:54;12.85;;;7.90;;
47760;SDS011;33524;55.434;38.520;2023-06-22T04:04:22;11.32;;;6.80;;
47760;SDS011;33524;55.434;38.520;2023-06-22T04:06:50;10.63;;;8.05;;
47760;SDS011;33524;55.434;38.520;2023-06-22T04:09:18;9.90;;;6.65;;
47760;SDS011;33524;55.434;38.520;2023-06-22T04:11:47;10.48;;;7.45;;
47760;SDS011;33524;55.434;38.520;2023-06-22T04:14:15;9.00;;;5.75;;
47760;SDS011;33524;55.434;38.520;2023-06-22T04:16:43;13.50;;;9.18;;
47760;SDS011;33524;55.434;38.520;2023-06-22T04:19:11;11.85;;;6.97;;
47760;SDS011;33524;55.434;38.520;2023-06-22T04:21:44;12.90;;;7.87;;
47760;SDS011;33524;55.434;38.520;2023-06-22T04:24:24;15.45;;;7.75;;
47760;SDS011;33524;55.434;38.520;2023-06-22T04:26:52;14.05;;;8.38;;
47760;SDS011;33524;55.434;38.520;2023-06-22T04:29:33;11.55;;;7.28;;
47760;SDS011;33524;55.434;38.520;2023-06-22T04:32:00;12.37;;;7.37;;
47760;SDS011;33524;55.434;38.520;2023-06-22T04:34:32;8.77;;;6.25;;
47760;SDS011;33524;55.434;38.520;2023-06-22T04:37:01;11.20;;;6.80;;
47760;SDS011;33524;55.434;38.520;2023-06-22T04:39:28;9.02;;;5.22;;
47760;SDS011;33524;55.434;38.520;2023-06-22T04:41:56;8.55;;;5.03;;
47760;SDS011;33524;55.434;38.520;2023-06-22T04:44:28;9.77;;;5.70;;
47760;SDS011;33524;55.434;38.520;2023-06-22T04:47:00;7.75;;;4.62;;
47760;SDS011;33524;55.434;38.520;2023-06-22T04:49:31;9.65;;;5.07;;
47760;SDS011;33524;55.434;38.520;2023-06-22T04:52:06;5.15;;;3.53;;
47760;SDS011;33524;55.434;38.520;2023-06-22T04:54:36;6.37;;;4.62;;
47760;SDS011;33524;55.434;38.520;2023-06-22T04:57:06;5.45;;;3.15;;
47760;SDS011;33524;55.434;38.520;2023-06-22T04:59:38;6.22;;;4.15;;
47760;SDS011;33524;55.434;38.520;2023-06-22T05:02:12;6.57;;;3.72;;
47760;SDS011;33524;55.434;38.520;2023-06-22T05:04:40;5.05;;;3.20;;
47760;SDS011;33524;55.434;38.520;2023-06-22T05:07:09;6.65;;;3.25;;
47760;SDS011;33524;55.434;38.520;2023-06-22T05:09:37;6.03;;;3.92;;
47760;SDS011;33524;55.434;38.520;2023-06-22T05:12:05;5.87;;;3.47;;
47760;SDS011;33524;55.434;38.520;2023-06-22T05:14:37;6.53;;;3.65;;
47760;SDS011;33524;55.434;38.520;2023-06-22T05:17:05;5.78;;;3.80;;
47760;SDS011;33524;55.434;38.520;2023-06-22T05:19:42;4.65;;;2.87;;
47760;SDS011;33524;55.434;38.520;2023-06-22T05:22:19;4.75;;;3.53;;
47760;SDS011;33524;55.434;38.520;2023-06-22T05:24:47;8.48;;;4.05;;
47760;SDS011;33524;55.434;38.520;2023-06-22T05:27:15;4.45;;;3.15;;
47760;SDS011;33524;55.434;38.520;2023-06-22T05:29:43;5.80;;;3.65;;
47760;SDS011;33524;55.434;38.520;2023-06-22T05:32:11;6.22;;;4.53;;
47760;SDS011;33524;55.434;38.520;2023-06-22T05:34:39;5.25;;;3.65;;
47760;SDS011;33524;55.434;38.520;2023-06-22T05:37:07;5.25;;;3.15;;
47760;SDS011;33524;55.434;38.520;2023-06-22T05:39:37;5.28;;;3.12;;
47760;SDS011;33524;55.434;38.520;2023-06-22T05:42:05;4.70;;;3.37;;
47760;SDS011;33524;55.434;38.520;2023-06-22T05:44:37;5.43;;;3.53;;
47760;SDS011;33524;55.434;38.520;2023-06-22T05:47:06;5.15;;;2.95;;
47760;SDS011;33524;55.434;38.520;2023-06-22T05:49:34;5.22;;;3.10;;
47760;SDS011;33524;55.434;38.520;2023-06-22T05:52:02;6.43;;;3.37;;
47760;SDS011;33524;55.434;38.520;2023-06-22T05:54:34;3.65;;;2.30;;
47760;SDS011;33524;55.434;38.520;2023-06-22T05:59:34;4.22;;;2.70;;
47760;SDS011;33524;55.434;38.520;2023-06-22T06:02:02;6.68;;;3.17;;
47760;SDS011;33524;55.434;38.520;2023-06-22T06:04:34;3.10;;;2.35;;
47760;SDS011;33524;55.434;38.520;2023-06-22T06:07:03;5.35;;;3.03;;
47760;SDS011;33524;55.434;38.520;2023-06-22T06:09:34;4.35;;;3.00;;
47760;SDS011;33524;55.434;38.520;2023-06-22T06:12:02;3.90;;;2.30;;
47760;SDS011;33524;55.434;38.520;2023-06-22T06:14:31;5.90;;;2.87;;
47760;SDS011;33524;55.434;38.520;2023-06-22T06:17:11;3.87;;;2.60;;
47760;SDS011;33524;55.434;38.520;2023-06-22T06:19:39;3.60;;;2.40;;
47760;SDS011;33524;55.434;38.520;2023-06-22T06:22:07;3.72;;;2.47;;
47760;SDS011;33524;55.434;38.520;2023-06-22T06:24:35;5.57;;;3.33;;
47760;SDS011;33524;55.434;38.520;2023-06-22T06:27:04;5.35;;;3.12;;
47760;SDS011;33524;55.434;38.520;2023-06-22T06:29:32;3.08;;;1.92;;
47760;SDS011;33524;55.434;38.520;2023-06-22T06:32:00;5.28;;;2.42;;
47760;SDS011;33524;55.434;38.520;2023-06-22T06:34:29;3.58;;;2.20;;
47760;SDS011;33524;55.434;38.520;2023-06-22T06:36:57;3.80;;;2.80;;
47760;SDS011;33524;55.434;38.520;2023-06-22T06:39:25;4.32;;;2.70;;
47760;SDS011;33524;55.434;38.520;2023-06-22T06:42:05;5.60;;;2.60;;
47760;SDS011;33524;55.434;38.520;2023-06-22T06:44:34;4.50;;;2.40;;
47760;SDS011;33524;55.434;38.520;2023-06-22T06:47:05;4.65;;;2.55;;
47760;SDS011;33524;55.434;38.520;2023-06-22T06:49:33;3.05;;;2.20;;
47760;SDS011;33524;55.434;38.520;2023-06-22T06:52:01;3.70;;;2.58;;
47760;SDS011;33524;55.434;38.520;2023-06-22T06:54:42;3.28;;;1.95;;
47760;SDS011;33524;55.434;38.520;2023-06-22T06:57:23;3.40;;;2.15;;
47760;SDS011;33524;55.434;38.520;2023-06-22T06:59:51;6.07;;;3.20;;
47760;SDS011;33524;55.434;38.520;2023-06-22T07:02:19;3.87;;;2.53;;
47760;SDS011;33524;55.434;38.520;2023-06-22T07:04:49;3.17;;;2.30;;
47760;SDS011;33524;55.434;38.520;2023-06-22T07:07:35;2.90;;;2.20;;
47760;SDS011;33524;55.434;38.520;2023-06-22T07:10:05;4.72;;;2.75;;
47760;SDS011;33524;55.434;38.520;2023-06-22T07:12:34;2.78;;;2.17;;
47760;SDS011;33524;55.434;38.520;2023-06-22T07:15:20;4.20;;;2.50;;
47760;SDS011;33524;55.434;38.520;2023-06-22T07:18:06;5.12;;;2.92;;
47760;SDS011;33524;55.434;38.520;2023-06-22T07:20:34;3.80;;;2.15;;
47760;SDS011;33524;55.434;38.520;2023-06-22T07:23:02;3.33;;;2.33;;
47760;SDS011;33524;55.434;38.520;2023-06-22T07:25:31;6.60;;;2.78;;
47760;SDS011;33524;55.434;38.520;2023-06-22T07:28:11;5.37;;;2.80;;
47760;SDS011;33524;55.434;38.520;2023-06-22T07:30:39;4.57;;;2.60;;
47760;SDS011;33524;55.434;38.520;2023-06-22T07:33:07;4.57;;;2.65;;
47760;SDS011;33524;55.434;38.520;2023-06-22T07:35:36;4.15;;;2.92;;
47760;SDS011;33524;55.434;38.520;2023-06-22T07:38:16;6.62;;;2.67;;
47760;SDS011;33524;55.434;38.520;2023-06-22T07:40:44;4.57;;;2.75;;
47760;SDS011;33524;55.434;38.520;2023-06-22T07:43:13;4.28;;;2.72;;
47760;SDS011;33524;55.434;38.520;2023-06-22T07:45:44;3.72;;;2.50;;
47760;SDS011;33524;55.434;38.520;2023-06-22T07:48:36;6.47;;;2.72;;
47760;SDS011;33524;55.434;38.520;2023-06-22T07:51:09;3.35;;;1.80;;
47760;SDS011;33524;55.434;38.520;2023-06-22T07:53:41;5.15;;;2.70;;
47760;SDS011;33524;55.434;38.520;2023-06-22T07:56:10;9.00;;;3.95;;
47760;SDS011;33524;55.434;38.520;2023-06-22T07:58:38;4.32;;;2.92;;
47760;SDS011;33524;55.434;38.520;2023-06-22T08:01:06;4.07;;;2.70;;
47760;SDS011;33524;55.434;38.520;2023-06-22T08:03:37;3.58;;;2.47;;
47760;SDS011;33524;55.434;38.520;2023-06-22T08:06:05;3.33;;;2.53;;
47760;SDS011;33524;55.434;38.520;2023-06-22T08:08:36;4.00;;;2.53;;
47760;SDS011;33524;55.434;38.520;2023-06-22T08:11:05;4.50;;;3.00;;
47760;SDS011;33524;55.434;38.520;2023-06-22T08:13:33;4.28;;;2.58;;
47760;SDS011;33524;55.434;38.520;2023-06-22T08:16:01;4.03;;;2.50;;
47760;SDS011;33524;55.434;38.520;2023-06-22T08:18:29;4.07;;;2.90;;
47760;SDS011;33524;55.434;38.520;2023-06-22T08:20:57;3.47;;;2.67;;
47760;SDS011;33524;55.434;38.520;2023-06-22T08:23:37;7.00;;;2.97;;
47760;SDS011;33524;55.434;38.520;2023-06-22T08:26:05;4.62;;;2.72;;
47760;SDS011;33524;55.434;38.520;2023-06-22T08:28:49;4.30;;;2.67;;
47760;SDS011;33524;55.434;38.520;2023-06-22T08:31:17;6.87;;;3.42;;
47760;SDS011;33524;55.434;38.520;2023-06-22T08:33:45;4.57;;;2.70;;
47760;SDS011;33524;55.434;38.520;2023-06-22T08:36:16;5.47;;;3.40;;
47760;SDS011;33524;55.434;38.520;2023-06-22T08:38:44;5.28;;;3.55;;
47760;SDS011;33524;55.434;38.520;2023-06-22T08:41:15;7.93;;;3.12;;
47760;SDS011;33524;55.434;38.520;2023-06-22T08:44:31;4.57;;;2.53;;
47760;SDS011;33524;55.434;38.520;2023-06-22T08:46:59;5.85;;;3.00;;
47760;SDS011;33524;55.434;38.520;2023-06-22T08:49:30;6.20;;;3.30;;
47760;SDS011;33524;55.434;38.520;2023-06-22T08:52:10;4.28;;;2.80;;
47760;SDS011;33524;55.434;38.520;2023-06-22T08:54:50;5.28;;;3.05;;
47760;SDS011;33524;55.434;38.520;2023-06-22T08:57:18;6.40;;;3.10;;
47760;SDS011;33524;55.434;38.520;2023-06-22T08:59:46;4.97;;;3.58;;
47760;SDS011;33524;55.434;38.520;2023-06-22T09:02:14;6.22;;;3.42;;
47760;SDS011;33524;55.434;38.520;2023-06-22T09:04:44;5.53;;;3.35;;
47760;SDS011;33524;55.434;38.520;2023-06-22T09:07:13;9.02;;;3.75;;
47760;SDS011;33524;55.434;38.520;2023-06-22T09:09:41;5.50;;;2.70;;
47760;SDS011;33524;55.434;38.520;2023-06-22T09:12:09;4.20;;;2.00;;
47760;SDS011;33524;55.434;38.520;2023-06-22T09:14:37;4.87;;;3.00;;
47760;SDS011;33524;55.434;38.520;2023-06-22T09:17:30;6.45;;;3.10;;
47760;SDS011;33524;55.434;38.520;2023-06-22T09:19:58;7.28;;;3.90;;
47760;SDS011;33524;55.434;38.520;2023-06-22T09:22:27;6.93;;;3.15;;
47760;SDS011;33524;55.434;38.520;2023-06-22T09:27:36;4.12;;;2.28;;
47760;SDS011;33524;55.434;38.520;2023-06-22T09:30:05;5.00;;;2.65;;
47760;SDS011;33524;55.434;38.520;2023-06-22T09:32:34;4.80;;;2.97;;
47760;SDS011;33524;55.434;38.520;2023-06-22T09:35:04;4.37;;;2.60;;
47760;SDS011;33524;55.434;38.520;2023-06-22T09:37:48;4.57;;;2.58;;
47760;SDS011;33524;55.434;38.520;2023-06-22T09:40:41;3.55;;;2.47;;
47760;SDS011;33524;55.434;38.520;2023-06-22T09:43:21;6.78;;;3.20;;
47760;SDS011;33524;55.434;38.520;2023-06-22T09:45:49;2.95;;;2.30;;
47760;SDS011;33524;55.434;38.520;2023-06-22T09:48:17;4.72;;;2.90;;
47760;SDS011;33524;55.434;38.520;2023-06-22T09:50:45;5.32;;;3.33;;
47760;SDS011;33524;55.434;38.520;2023-06-22T09:53:14;4.50;;;2.17;;
47760;SDS011;33524;55.434;38.520;2023-06-22T09:55:42;4.53;;;2.28;;
47760;SDS011;33524;55.434;38.520;2023-06-22T09:58:10;4.50;;;2.60;;
47760;SDS011;33524;55.434;38.520;2023-06-22T10:00:39;5.97;;;3.30;;
47760;SDS011;33524;55.434;38.520;2023-06-22T10:03:09;4.82;;;2.75;;
47760;SDS011;33524;55.434;38.520;2023-06-22T10:05:37;6.53;;;3.42;;
47760;SDS011;33524;55.434;38.520;2023-06-22T10:08:05;6.97;;;2.42;;
47760;SDS011;33524;55.434;38.520;2023-06-22T10:10:36;6.70;;;4.03;;
47760;SDS011;33524;55.434;38.520;2023-06-22T10:13:10;5.55;;;3.53;;
47760;SDS011;33524;55.434;38.520;2023-06-22T10:15:39;5.18;;;3.50;;
47760;SDS011;33524;55.434;38.520;2023-06-22T10:18:31;5.20;;;3.47;;
47760;SDS011;33524;55.434;38.520;2023-06-22T10:20:59;6.45;;;3.33;;
47760;SDS011;33524;55.434;38.520;2023-06-22T10:23:28;4.03;;;2.53;;
47760;SDS011;33524;55.434;38.520;2023-06-22T10:25:59;7.00;;;2.70;;
47760;SDS011;33524;55.434;38.520;2023-06-22T10:28:27;6.75;;;3.15;;
47760;SDS011;33524;55.434;38.520;2023-06-22T10:30:59;4.57;;;2.97;;
47760;SDS011;33524;55.434;38.520;2023-06-22T10:33:39;5.65;;;2.35;;
47760;SDS011;33524;55.434;38.520;2023-06-22T10:36:09;5.53;;;3.00;;
47760;SDS011;33524;55.434;38.520;2023-06-22T10:38:38;6.78;;;3.67;;
47760;SDS011;33524;55.434;38.520;2023-06-22T10:41:06;8.05;;;2.47;;
47760;SDS011;33524;55.434;38.520;2023-06-22T10:43:34;5.78;;;2.90;;
47760;SDS011;33524;55.434;38.520;2023-06-22T10:46:02;4.57;;;2.78;;
47760;SDS011;33524;55.434;38.520;2023-06-22T10:48:30;4.70;;;3.42;;
47760;SDS011;33524;55.434;38.520;2023-06-22T10:50:59;5.50;;;3.72;;
47760;SDS011;33524;55.434;38.520;2023-06-22T10:53:27;8.30;;;3.87;;
47760;SDS011;33524;55.434;38.520;2023-06-22T10:55:55;8.73;;;4.12;;
47760;SDS011;33524;55.434;38.520;2023-06-22T10:58:24;4.18;;;3.17;;
47760;SDS011;33524;55.434;38.520;2023-06-22T11:00:53;4.53;;;3.30;;
47760;SDS011;33524;55.434;38.520;2023-06-22T11:03:36;3.42;;;2.40;;
47760;SDS011;33524;55.434;38.520;2023-06-22T11:06:04;4.65;;;2.12;;
47760;SDS011;33524;55.434;38.520;2023-06-22T11:08:32;4.80;;;3.05;;
47760;SDS011;33524;55.434;38.520;2023-06-22T11:11:01;7.95;;;4.07;;
47760;SDS011;33524;55.434;38.520;2023-06-22T11:13:32;5.53;;;3.60;;
47760;SDS011;33524;55.434;38.520;2023-06-22T11:16:00;6.50;;;4.00;;
47760;SDS011;33524;55.434;38.520;2023-06-22T11:18:28;5.03;;;2.97;;
47760;SDS011;33524;55.434;38.520;2023-06-22T11:23:50;5.60;;;3.37;;
47760;SDS011;33524;55.434;38.520;2023-06-22T11:26:19;6.57;;;2.42;;
47760;SDS011;33524;55.434;38.520;2023-06-22T11:28:48;4.15;;;2.30;;
47760;SDS011;33524;55.434;38.520;2023-06-22T11:31:16;4.10;;;3.08;;
47760;SDS011;33524;55.434;38.520;2023-06-22T11:33:53;5.47;;;3.00;;
47760;SDS011;33524;55.434;38.520;2023-06-22T11:36:22;5.43;;;3.12;;
47760;SDS011;33524;55.434;38.520;2023-06-22T11:38:55;6.28;;;2.80;;
47760;SDS011;33524;55.434;38.520;2023-06-22T11:41:24;5.18;;;2.95;;
47760;SDS011;33524;55.434;38.520;2023-06-22T11:43:52;6.25;;;3.35;;
47760;SDS011;33524;55.434;38.520;2023-06-22T11:46:32;7.20;;;2.92;;
47760;SDS011;33524;55.434;38.520;2023-06-22T11:49:01;5.20;;;4.05;;
47760;SDS011;33524;55.434;38.520;2023-06-22T11:51:29;6.25;;;3.17;;
47760;SDS011;33524;55.434;38.520;2023-06-22T11:53:59;8.52;;;3.22;;
47760;SDS011;33524;55.434;38.520;2023-06-22T11:56:27;7.35;;;3.60;;
47760;SDS011;33524;55.434;38.520;2023-06-22T11:58:55;8.27;;;3.70;;
47760;SDS011;33524;55.434;38.520;2023-06-22T12:01:24;5.80;;;3.30;;
47760;SDS011;33524;55.434;38.520;2023-06-22T12:06:46;7.85;;;2.87;;
47760;SDS011;33524;55.434;38.520;2023-06-22T12:09:14;6.05;;;3.17;;
47760;SDS011;33524;55.434;38.520;2023-06-22T12:11:54;4.50;;;3.12;;
47760;SDS011;33524;55.434;38.520;2023-06-22T12:14:22;5.57;;;3.45;;
47760;SDS011;33524;55.434;38.520;2023-06-22T12:16:50;7.85;;;3.60;;
47760;SDS011;33524;55.434;38.520;2023-06-22T12:19:19;3.75;;;2.92;;
47760;SDS011;33524;55.434;38.520;2023-06-22T12:21:57;4.75;;;2.35;;
47760;SDS011;33524;55.434;38.520;2023-06-22T12:24:28;4.62;;;2.55;;
47760;SDS011;33524;55.434;38.520;2023-06-22T12:26:56;5.53;;;3.25;;
47760;SDS011;33524;55.434;38.520;2023-06-22T12:29:24;8.23;;;3.10;;
47760;SDS011;33524;55.434;38.520;2023-06-22T12:31:52;6.65;;;3.35;;
47760;SDS011;33524;55.434;38.520;2023-06-22T12:34:32;5.00;;;2.75;;
47760;SDS011;33524;55.434;38.520;2023-06-22T12:37:01;5.90;;;3.42;;
47760;SDS011;33524;55.434;38.520;2023-06-22T12:39:29;8.32;;;3.95;;
47760;SDS011;33524;55.434;38.520;2023-06-22T12:42:15;4.65;;;3.15;;
47760;SDS011;33524;55.434;38.520;2023-06-22T12:44:43;5.78;;;3.15;;
47760;SDS011;33524;55.434;38.520;2023-06-22T12:47:11;6.20;;;3.50;;
47760;SDS011;33524;55.434;38.520;2023-06-22T12:49:40;6.72;;;3.58;;
47760;SDS011;33524;55.434;38.520;2023-06-22T12:52:20;4.93;;;3.60;;
47760;SDS011;33524;55.434;38.520;2023-06-22T12:54:49;4.82;;;2.87;;
47760;SDS011;33524;55.434;38.520;2023-06-22T12:57:21;4.40;;;3.10;;
47760;SDS011;33524;55.434;38.520;2023-06-22T13:00:06;4.15;;;3.00;;
47760;SDS011;33524;55.434;38.520;2023-06-22T13:02:37;7.12;;;3.83;;
47760;SDS011;33524;55.434;38.520;2023-06-22T13:05:21;5.45;;;3.40;;
47760;SDS011;33524;55.434;38.520;2023-06-22T13:07:49;6.90;;;3.95;;
47760;SDS011;33524;55.434;38.520;2023-06-22T13:10:17;5.43;;;3.67;;
47760;SDS011;33524;55.434;38.520;2023-06-22T13:12:46;5.43;;;2.95;;
47760;SDS011;33524;55.434;38.520;2023-06-22T13:15:28;5.22;;;3.72;;
47760;SDS011;33524;55.434;38.520;2023-06-22T13:18:15;6.03;;;3.20;;
47760;SDS011;33524;55.434;38.520;2023-06-22T13:20:43;5.05;;;3.50;;
47760;SDS011;33524;55.434;38.520;2023-06-22T13:23:24;5.90;;;3.90;;
47760;SDS011;33524;55.434;38.520;2023-06-22T13:25:53;6.03;;;3.33;;
47760;SDS011;33524;55.434;38.520;2023-06-22T13:28:40;5.78;;;3.53;;
47760;SDS011;33524;55.434;38.520;2023-06-22T13:31:08;6.85;;;3.33;;
47760;SDS011;33524;55.434;38.520;2023-06-22T13:33:49;4.60;;;2.85;;
47760;SDS011;33524;55.434;38.520;2023-06-22T13:36:19;3.95;;;3.10;;
47760;SDS011;33524;55.434;38.520;2023-06-22T13:38:48;5.28;;;3.75;;
47760;SDS011;33524;55.434;38.520;2023-06-22T13:41:29;5.35;;;3.53;;
47760;SDS011;33524;55.434;38.520;2023-06-22T13:43:57;5.28;;;4.00;;
47760;SDS011;33524;55.434;38.520;2023-06-22T13:46:37;5.12;;;3.42;;
47760;SDS011;33524;55.434;38.520;2023-06-22T13:49:08;13.60;;;4.62;;
47760;SDS011;33524;55.434;38.520;2023-06-22T13:51:49;6.25;;;3.97;;
47760;SDS011;33524;55.434;38.520;2023-06-22T13:57:28;8.13;;;3.90;;
47760;SDS011;33524;55.434;38.520;2023-06-22T13:59:57;5.70;;;3.55;;
47760;SDS011;33524;55.434;38.520;2023-06-22T14:02:25;5.07;;;3.60;;
47760;SDS011;33524;55.434;38.520;2023-06-22T14:05:08;6.82;;;4.00;;
47760;SDS011;33524;55.434;38.520;2023-06-22T14:07:36;6.07;;;3.05;;
47760;SDS011;33524;55.434;38.520;2023-06-22T14:10:17;4.85;;;3.42;;
47760;SDS011;33524;55.434;38.520;2023-06-22T14:12:45;5.85;;;3.08;;
47760;SDS011;33524;55.434;38.520;2023-06-22T14:15:16;4.72;;;3.65;;
47760;SDS011;33524;55.434;38.520;2023-06-22T14:17:44;4.70;;;3.35;;
47760;SDS011;33524;55.434;38.520;2023-06-22T14:20:13;5.55;;;3.42;;
47760;SDS011;33524;55.434;38.520;2023-06-22T14:22:42;5.53;;;3.70;;
47760;SDS011;33524;55.434;38.520;2023-06-22T14:25:10;6.85;;;3.60;;
47760;SDS011;33524;55.434;38.520;2023-06-22T14:27:38;5.22;;;3.40;;
47760;SDS011;33524;55.434;38.520;2023-06-22T14:30:06;5.00;;;3.17;;
47760;SDS011;33524;55.434;38.520;2023-06-22T14:32:59;4.93;;;3.35;;
47760;SDS011;33524;55.434;38.520;2023-06-22T14:35:27;4.10;;;3.15;;
47760;SDS011;33524;55.434;38.520;2023-06-22T14:37:56;5.07;;;3.97;;
47760;SDS011;33524;55.434;38.520;2023-06-22T14:40:24;5.32;;;3.17;;
47760;SDS011;33524;55.434;38.520;2023-06-22T14:43:22;6.72;;;3.05;;
47760;SDS011;33524;55.434;38.520;2023-06-22T14:46:05;5.20;;;3.35;;
47760;SDS011;33524;55.434;38.520;2023-06-22T14:48:33;5.40;;;2.85;;
47760;SDS011;33524;55.434;38.520;2023-06-22T14:51:01;5.95;;;2.95;;
47760;SDS011;33524;55.434;38.520;2023-06-22T14:53:30;4.20;;;3.08;;
47760;SDS011;33524;55.434;38.520;2023-06-22T14:55:58;5.20;;;2.92;;
47760;SDS011;33524;55.434;38.520;2023-06-22T14:59:15;4.93;;;3.40;;
47760;SDS011;33524;55.434;38.520;2023-06-22T15:01:44;6.50;;;2.97;;
47760;SDS011;33524;55.434;38.520;2023-06-22T15:04:15;4.43;;;2.85;;
47760;SDS011;33524;55.434;38.520;2023-06-22T15:06:58;6.15;;;2.67;;
47760;SDS011;33524;55.434;38.520;2023-06-22T15:09:27;7.60;;;2.72;;
47760;SDS011;33524;55.434;38.520;2023-06-22T15:11:54;4.32;;;2.78;;
47760;SDS011;33524;55.434;38.520;2023-06-22T15:14:39;5.57;;;2.78;;
47760;SDS011;33524;55.434;38.520;2023-06-22T15:17:08;3.33;;;2.50;;
47760;SDS011;33524;55.434;38.520;2023-06-22T15:19:36;5.03;;;2.22;;
47760;SDS011;33524;55.434;38.520;2023-06-22T15:22:07;4.20;;;2.40;;